createdAt,value
2023-01-26T00:00:25.198Z,18.63
2023-01-26T00:02:52.602Z,20.23
2023-01-26T00:05:20.060Z,20.80
2023-01-26T00:07:48.245Z,22.00
2023-01-26T00:10:16.031Z,21.53
2023-01-26T00:12:43.445Z,17.60
2023-01-26T00:15:10.935Z,18.23
2023-01-26T00:17:39.715Z,18.47
2023-01-26T00:20:07.450Z,17.43
2023-01-26T00:22:34.799Z,17.23
2023-01-26T00:25:02.277Z,20.17
2023-01-26T00:27:29.787Z,20.00
2023-01-26T00:30:01.198Z,20.00
2023-01-26T00:32:28.546Z,18.83
2023-01-26T00:34:57.232Z,16.50
2023-01-26T00:37:24.602Z,19.20
2023-01-26T00:39:52.090Z,20.07
2023-01-26T00:42:20.711Z,18.53
2023-01-26T00:44:48.069Z,18.23
2023-01-26T00:47:15.586Z,22.40
2023-01-26T00:49:42.974Z,20.60
2023-01-26T00:52:11.708Z,18.50
2023-01-26T00:54:39.533Z,17.10
2023-01-26T00:57:07.180Z,17.77
2023-01-26T00:59:36.449Z,18.17
2023-01-26T01:02:03.937Z,16.47
2023-01-26T01:04:31.483Z,18.00
2023-01-26T01:07:01.373Z,17.87
2023-01-26T01:09:30.069Z,19.30
2023-01-26T01:11:57.503Z,16.80
2023-01-26T01:14:25.058Z,19.27
2023-01-26T01:16:52.806Z,18.93
2023-01-26T01:19:20.408Z,18.10
2023-01-26T01:21:47.881Z,18.00
2023-01-26T01:24:15.293Z,19.20
2023-01-26T01:26:44.690Z,16.43
2023-01-26T01:29:13.219Z,16.73
2023-01-26T01:31:41.232Z,16.73
2023-01-26T01:34:08.659Z,20.43
2023-01-26T01:36:36.099Z,15.43
2023-01-26T01:39:03.863Z,17.50
2023-01-26T01:41:31.218Z,21.77
2023-01-26T01:44:14.565Z,20.40
2023-01-26T01:46:44.623Z,18.93
2023-01-26T01:49:17.627Z,20.07
2023-01-26T01:51:47.171Z,20.23
2023-01-26T01:54:16.259Z,27.10
2023-01-26T01:56:45.833Z,16.87
2023-01-26T01:59:14.769Z,19.30
2023-01-26T02:01:42.531Z,20.37
2023-01-26T02:04:11.357Z,19.17
2023-01-26T02:06:42.100Z,22.47
2023-01-26T02:09:29.795Z,23.00
2023-01-26T02:11:57.973Z,20.10
2023-01-26T02:14:28.441Z,17.73
2023-01-26T02:16:55.823Z,16.97
2023-01-26T02:19:26.163Z,16.23
2023-01-26T02:21:55.502Z,17.80
2023-01-26T02:24:26.414Z,17.57
2023-01-26T02:26:55.407Z,17.17
2023-01-26T02:29:24.099Z,19.13
2023-01-26T02:31:53.484Z,22.37
2023-01-26T02:34:21.628Z,23.87
2023-01-26T02:36:57.111Z,23.77
2023-01-26T02:39:27.862Z,21.83
2023-01-26T02:42:14.264Z,21.30
2023-01-26T02:44:46.186Z,28.90
2023-01-26T02:47:14.675Z,29.47
2023-01-26T02:49:47.190Z,32.53
2023-01-26T02:52:16.778Z,29.83
2023-01-26T02:55:04.101Z,31.03
2023-01-26T02:57:34.337Z,30.60
2023-01-26T03:00:01.733Z,32.77
2023-01-26T03:02:31.678Z,35.57
2023-01-26T03:04:59.052Z,32.47
2023-01-26T03:07:28.184Z,33.57
2023-01-26T03:09:55.614Z,33.23
2023-01-26T03:12:23.099Z,36.13
2023-01-26T03:15:15.428Z,39.10
2023-01-26T03:17:42.975Z,37.63
2023-01-26T03:20:28.627Z,39.30
2023-01-26T03:23:13.830Z,32.53
2023-01-26T03:26:01.336Z,35.40
2023-01-26T03:28:31.678Z,31.43
2023-01-26T03:31:00.511Z,31.13
2023-01-26T03:33:30.641Z,27.07
2023-01-26T03:35:58.199Z,33.37
2023-01-26T03:38:25.643Z,33.07
2023-01-26T03:41:16.042Z,32.27
2023-01-26T03:44:01.235Z,32.90
2023-01-26T03:46:47.761Z,30.47
2023-01-26T03:49:33.662Z,31.93
2023-01-26T03:52:19.570Z,28.10
2023-01-26T03:55:06.270Z,28.83
2023-01-26T03:57:33.675Z,28.93
2023-01-26T04:00:01.088Z,33.53
2023-01-26T04:02:48.606Z,30.00
2023-01-26T04:05:33.638Z,32.00
2023-01-26T04:08:24.561Z,30.40
2023-01-26T04:10:57.332Z,30.43
2023-01-26T04:13:43.616Z,27.30
2023-01-26T04:16:35.526Z,26.73
2023-01-26T04:19:22.048Z,29.30
2023-01-26T04:21:49.386Z,27.27
2023-01-26T04:24:22.393Z,27.30
2023-01-26T04:26:54.297Z,26.50
2023-01-26T04:29:25.933Z,28.80
2023-01-26T04:31:53.674Z,34.77
2023-01-26T04:34:24.038Z,38.47
2023-01-26T04:36:51.513Z,25.17
2023-01-26T04:39:20.446Z,28.07
2023-01-26T04:41:51.910Z,28.13
2023-01-26T04:44:20.699Z,23.63
2023-01-26T04:46:49.150Z,28.93
2023-01-26T04:49:17.908Z,23.77
2023-01-26T04:51:46.777Z,23.73
2023-01-26T04:54:14.819Z,27.30
2023-01-26T04:56:44.792Z,27.07
2023-01-26T04:59:12.793Z,25.97
2023-01-26T05:01:42.221Z,29.17
2023-01-26T05:04:11.411Z,26.07
2023-01-26T05:06:42.022Z,23.17
2023-01-26T05:09:11.225Z,23.17
2023-01-26T05:11:40.301Z,25.23
2023-01-26T05:14:07.679Z,26.77
2023-01-26T05:16:59.649Z,25.30
2023-01-26T05:19:47.618Z,25.63
2023-01-26T05:22:35.447Z,20.20
2023-01-26T05:25:30.051Z,22.37
2023-01-26T05:28:12.294Z,24.07
2023-01-26T05:30:41.016Z,25.80
2023-01-26T05:33:09.433Z,22.70
2023-01-26T05:35:37.529Z,22.97
2023-01-26T05:38:08.414Z,22.30
2023-01-26T05:40:37.183Z,23.90
2023-01-26T05:43:04.948Z,27.47
2023-01-26T05:45:49.267Z,21.63
2023-01-26T05:48:18.398Z,24.53
2023-01-26T05:50:48.257Z,23.70
2023-01-26T05:53:19.713Z,20.80
2023-01-26T05:55:49.643Z,27.27
2023-01-26T05:58:20.847Z,24.50
2023-01-26T06:00:49.502Z,26.00
2023-01-26T06:03:23.993Z,25.20
2023-01-26T06:05:54.894Z,21.37
2023-01-26T06:08:31.645Z,27.60
2023-01-26T06:11:19.291Z,26.97
2023-01-26T06:13:57.466Z,21.03
2023-01-26T06:16:28.267Z,24.00
2023-01-26T06:18:57.690Z,26.07
2023-01-26T06:21:25.035Z,22.47
2023-01-26T06:23:53.669Z,24.07
2023-01-26T06:26:24.689Z,22.43
2023-01-26T06:28:53.324Z,24.20
2023-01-26T06:31:24.192Z,21.67
2023-01-26T06:33:52.459Z,30.83
2023-01-26T06:36:20.437Z,26.30
2023-01-26T06:38:49.654Z,29.17
2023-01-26T06:41:17.973Z,23.90
2023-01-26T06:43:47.476Z,26.37
2023-01-26T06:46:15.700Z,24.87
2023-01-26T06:48:44.021Z,25.23
2023-01-26T06:51:39.270Z,26.93
2023-01-26T06:54:06.887Z,25.60
2023-01-26T06:56:42.102Z,23.93
2023-01-26T06:59:22.026Z,25.23
2023-01-26T07:02:13.125Z,23.67
2023-01-26T07:04:40.466Z,25.03
2023-01-26T07:07:08.205Z,26.93
2023-01-26T07:09:35.562Z,27.07
2023-01-26T07:12:03.013Z,27.60
2023-01-26T07:14:32.267Z,22.77
2023-01-26T07:16:59.798Z,24.67
2023-01-26T07:19:29.923Z,25.73
2023-01-26T07:21:57.396Z,30.97
2023-01-26T07:24:24.930Z,21.77
2023-01-26T07:26:52.486Z,25.17
2023-01-26T07:29:20.067Z,28.30
2023-01-26T07:31:49.353Z,24.77
2023-01-26T07:34:16.774Z,23.83
2023-01-26T07:36:44.746Z,25.73
2023-01-26T07:39:12.212Z,33.80
2023-01-26T07:41:39.631Z,25.83
2023-01-26T07:44:26.088Z,24.73
2023-01-26T07:46:55.386Z,24.33
2023-01-26T07:49:22.761Z,24.73
2023-01-26T07:51:52.450Z,27.80
2023-01-26T07:54:21.387Z,24.97
2023-01-26T07:56:51.915Z,24.87
2023-01-26T07:59:19.439Z,23.73
2023-01-26T08:01:47.689Z,27.17
2023-01-26T08:04:16.775Z,26.43
2023-01-26T08:06:44.254Z,25.93
2023-01-26T08:09:12.217Z,25.87
2023-01-26T08:11:39.559Z,27.93
2023-01-26T08:14:06.913Z,24.23
2023-01-26T08:16:34.513Z,23.87
2023-01-26T08:19:02.844Z,21.67
2023-01-26T08:21:31.523Z,22.27
2023-01-26T08:24:01.770Z,17.47
2023-01-26T08:26:29.859Z,23.53
2023-01-26T08:28:57.208Z,21.77
2023-01-26T08:31:25.631Z,21.90
2023-01-26T08:33:54.330Z,25.77
2023-01-26T08:36:22.701Z,31.87
2023-01-26T08:38:51.914Z,28.47
2023-01-26T08:41:19.595Z,25.70
2023-01-26T08:43:47.089Z,28.60
2023-01-26T08:46:14.780Z,28.57
2023-01-26T08:48:42.330Z,33.07
2023-01-26T08:51:09.747Z,31.47
2023-01-26T08:53:37.939Z,31.43
2023-01-26T08:56:08.123Z,32.87
2023-01-26T08:58:36.394Z,33.33
2023-01-26T09:01:05.049Z,37.07
2023-01-26T09:03:33.417Z,35.47
2023-01-26T09:06:01.410Z,31.63
2023-01-26T09:08:28.893Z,32.00
2023-01-26T09:10:56.806Z,33.23
2023-01-26T09:13:25.487Z,31.83
2023-01-26T09:15:53.123Z,29.03
2023-01-26T09:18:20.713Z,34.90
2023-01-26T09:20:48.072Z,29.80
2023-01-26T09:23:18.033Z,32.37
2023-01-26T09:25:45.826Z,32.00
2023-01-26T09:28:13.171Z,30.90
2023-01-26T09:30:42.048Z,34.43
2023-01-26T09:33:09.762Z,33.73
2023-01-26T09:35:37.417Z,26.50
2023-01-26T09:38:05.236Z,24.70
2023-01-26T09:40:38.097Z,32.97
2023-01-26T09:43:15.913Z,27.57
2023-01-26T09:45:47.570Z,31.77
2023-01-26T09:48:25.337Z,29.03
2023-01-26T09:50:56.253Z,31.30
2023-01-26T09:53:26.511Z,29.23
2023-01-26T09:55:54.911Z,29.93
2023-01-26T09:58:26.770Z,33.80
2023-01-26T10:00:59.076Z,34.13
2023-01-26T10:03:29.685Z,34.10
2023-01-26T10:06:00.772Z,34.90
2023-01-26T10:08:46.941Z,29.83
2023-01-26T10:11:17.233Z,30.17
2023-01-26T10:13:49.284Z,28.97
2023-01-26T10:16:18.411Z,26.90
2023-01-26T10:18:50.987Z,34.80
2023-01-26T10:21:20.671Z,30.07
2023-01-26T10:23:48.970Z,30.77
2023-01-26T10:26:17.777Z,27.10
2023-01-26T10:28:45.865Z,28.07
2023-01-26T10:31:15.049Z,29.30
2023-01-26T10:33:49.537Z,22.00
2023-01-26T10:36:17.190Z,25.83
2023-01-26T10:38:45.502Z,21.40
2023-01-26T10:41:29.098Z,26.40
2023-01-26T10:43:57.726Z,22.27
2023-01-26T10:46:26.630Z,26.10
2023-01-26T10:48:56.099Z,25.77
2023-01-26T10:51:25.953Z,26.93
2023-01-26T10:54:08.240Z,27.03
2023-01-26T10:56:37.282Z,27.07
2023-01-26T10:59:09.141Z,25.27
2023-01-26T11:01:51.566Z,23.57
2023-01-26T11:04:20.331Z,20.27
2023-01-26T11:06:47.897Z,25.73
2023-01-26T11:09:19.144Z,20.83
2023-01-26T11:11:55.626Z,19.10
2023-01-26T11:14:23.263Z,20.93
2023-01-26T11:16:51.614Z,17.97
2023-01-26T11:19:27.079Z,17.43
2023-01-26T11:21:56.632Z,17.13
2023-01-26T11:24:27.048Z,18.40
2023-01-26T11:27:18.496Z,16.83
2023-01-26T11:29:50.986Z,16.87
2023-01-26T11:32:22.188Z,15.00
2023-01-26T11:34:54.779Z,19.57
2023-01-26T11:37:40.308Z,18.90
2023-01-26T11:40:25.744Z,18.60
2023-01-26T11:42:59.494Z,14.50
2023-01-26T11:45:29.891Z,18.03
2023-01-26T11:48:04.099Z,15.77
2023-01-26T11:50:36.058Z,16.80
2023-01-26T11:53:19.258Z,17.07
2023-01-26T11:55:51.324Z,19.00
2023-01-26T11:58:23.782Z,17.00
2023-01-26T12:00:53.199Z,16.13
2023-01-26T12:03:25.784Z,15.97
2023-01-26T12:05:56.213Z,14.97
2023-01-26T12:08:25.990Z,16.97
2023-01-26T12:11:20.014Z,18.07
2023-01-26T12:13:49.865Z,13.17
2023-01-26T12:16:19.298Z,13.03
2023-01-26T12:19:01.894Z,14.27
2023-01-26T12:21:39.427Z,15.90
2023-01-26T12:24:11.045Z,18.70
2023-01-26T12:26:48.084Z,17.97
2023-01-26T12:29:19.442Z,16.53
2023-01-26T12:31:48.853Z,17.17
2023-01-26T12:34:16.713Z,15.93
2023-01-26T12:36:49.001Z,16.33
2023-01-26T12:39:23.312Z,14.30
2023-01-26T12:41:59.916Z,18.03
2023-01-26T12:44:33.810Z,13.03
2023-01-26T12:47:05.954Z,16.27
2023-01-26T12:49:36.817Z,19.53
2023-01-26T12:52:07.543Z,13.67
2023-01-26T12:54:37.441Z,12.03
2023-01-26T12:57:06.766Z,16.07
2023-01-26T12:59:46.728Z,17.27
2023-01-26T13:02:25.179Z,16.40
2023-01-26T13:04:53.404Z,12.97
2023-01-26T13:07:29.769Z,17.70
2023-01-26T13:10:09.982Z,15.00
2023-01-26T13:12:47.788Z,14.60
2023-01-26T13:15:16.439Z,14.93
2023-01-26T13:18:00.270Z,14.87
2023-01-26T13:20:43.033Z,14.33
2023-01-26T13:23:28.945Z,15.47
2023-01-26T13:26:15.015Z,14.47
2023-01-26T13:28:42.459Z,15.93
2023-01-26T13:31:11.187Z,14.73
2023-01-26T13:33:38.941Z,17.17
2023-01-26T13:36:12.003Z,14.77
2023-01-26T13:38:41.951Z,16.47
2023-01-26T13:41:13.227Z,14.43
2023-01-26T13:43:42.564Z,19.13
2023-01-26T13:46:13.188Z,14.60
2023-01-26T13:48:43.751Z,14.87
2023-01-26T13:51:14.416Z,16.73
2023-01-26T13:53:44.246Z,13.23
2023-01-26T13:56:22.939Z,15.53
2023-01-26T13:58:50.711Z,12.17
2023-01-26T14:01:18.418Z,15.97
2023-01-26T14:03:45.970Z,14.70
2023-01-26T14:06:15.834Z,15.27
2023-01-26T14:08:52.262Z,17.60
2023-01-26T14:11:20.991Z,14.30
2023-01-26T14:13:51.759Z,17.97
2023-01-26T14:16:25.265Z,15.77
2023-01-26T14:19:04.086Z,15.87
2023-01-26T14:21:33.024Z,15.73
2023-01-26T14:24:00.550Z,14.63
2023-01-26T14:26:30.987Z,16.23
2023-01-26T14:29:01.279Z,14.37
2023-01-26T14:31:30.063Z,13.23
2023-01-26T14:33:59.071Z,17.00
2023-01-26T14:36:27.480Z,14.73
2023-01-26T14:38:55.652Z,12.57
2023-01-26T14:41:24.622Z,13.27
2023-01-26T14:43:56.053Z,13.70
2023-01-26T14:46:29.702Z,10.37
2023-01-26T14:48:59.545Z,15.90
2023-01-26T14:51:28.465Z,12.03
2023-01-26T14:53:57.078Z,14.87
2023-01-26T14:56:29.108Z,12.70
2023-01-26T14:58:56.619Z,16.27
2023-01-26T15:01:25.280Z,14.33
2023-01-26T15:03:59.607Z,13.03
2023-01-26T15:06:28.495Z,16.07
2023-01-26T15:08:58.077Z,15.23
2023-01-26T15:11:44.768Z,15.47
2023-01-26T15:14:25.919Z,11.43
2023-01-26T15:16:53.887Z,14.40
2023-01-26T15:19:24.827Z,14.90
2023-01-26T15:21:52.704Z,15.30
2023-01-26T15:24:20.521Z,20.33
2023-01-26T15:26:48.087Z,12.43
2023-01-26T15:29:19.710Z,15.30
2023-01-26T15:31:52.181Z,19.23
2023-01-26T15:34:34.097Z,15.03
2023-01-26T15:37:01.893Z,14.90
2023-01-26T15:39:30.203Z,12.00
2023-01-26T15:42:02.794Z,13.70
2023-01-26T15:44:30.313Z,14.70
2023-01-26T15:46:59.222Z,11.23
2023-01-26T15:49:26.730Z,15.80
2023-01-26T15:51:55.768Z,16.57
2023-01-26T15:54:23.145Z,14.90
2023-01-26T15:56:50.491Z,18.03
2023-01-26T15:59:17.941Z,14.00
2023-01-26T16:01:45.549Z,13.00
2023-01-26T16:04:13.734Z,11.97
2023-01-26T16:06:41.231Z,13.87
2023-01-26T16:09:09.899Z,13.37
2023-01-26T16:11:48.257Z,17.60
2023-01-26T16:14:15.725Z,12.07
2023-01-26T16:16:43.252Z,15.50
2023-01-26T16:19:10.806Z,15.17
2023-01-26T16:21:41.019Z,17.00
2023-01-26T16:24:11.238Z,14.37
2023-01-26T16:26:38.743Z,14.17
2023-01-26T16:29:06.450Z,14.73
2023-01-26T16:31:34.586Z,13.33
2023-01-26T16:34:02.049Z,12.00
2023-01-26T16:36:29.505Z,16.67
2023-01-26T16:38:56.925Z,13.53
2023-01-26T16:41:26.996Z,15.50
2023-01-26T16:43:54.901Z,16.10
2023-01-26T16:46:22.331Z,16.27
2023-01-26T16:48:49.993Z,14.97
2023-01-26T16:51:19.245Z,15.63
2023-01-26T16:53:46.975Z,20.93
2023-01-26T16:56:15.143Z,17.60
2023-01-26T16:58:43.849Z,18.70
2023-01-26T17:01:17.106Z,16.73
2023-01-26T17:03:44.511Z,19.73
2023-01-26T17:06:12.462Z,19.20
2023-01-26T17:08:40.060Z,22.03
2023-01-26T17:11:07.771Z,16.37
2023-01-26T17:13:35.334Z,15.90
2023-01-26T17:16:04.262Z,21.40
2023-01-26T17:18:33.380Z,23.27
2023-01-26T17:21:02.810Z,23.73
2023-01-26T17:23:31.280Z,23.00
2023-01-26T17:25:59.259Z,19.80
2023-01-26T17:28:27.553Z,22.03
2023-01-26T17:30:54.993Z,20.30
2023-01-26T17:33:23.691Z,22.63
2023-01-26T17:35:59.362Z,19.60
2023-01-26T17:38:26.727Z,19.50
2023-01-26T17:40:57.306Z,13.73
2023-01-26T17:43:27.396Z,17.20
2023-01-26T17:46:02.591Z,18.43
2023-01-26T17:48:31.521Z,20.33
2023-01-26T17:50:58.903Z,16.13
2023-01-26T17:53:27.803Z,20.70
2023-01-26T17:55:55.253Z,18.17
2023-01-26T17:58:22.620Z,19.57
2023-01-26T18:00:50.105Z,18.63
2023-01-26T18:03:17.815Z,20.30
2023-01-26T18:05:53.165Z,20.23
2023-01-26T18:08:20.665Z,17.20
2023-01-26T18:10:48.036Z,20.50
2023-01-26T18:13:16.241Z,18.07
2023-01-26T18:15:44.762Z,17.43
2023-01-26T18:18:12.751Z,14.13
2023-01-26T18:20:40.272Z,15.30
2023-01-26T18:23:09.004Z,14.83
2023-01-26T18:25:36.709Z,19.67
2023-01-26T18:28:04.940Z,16.43
2023-01-26T18:30:33.750Z,17.87
2023-01-26T18:33:01.259Z,25.30
2023-01-26T18:35:28.659Z,18.00
2023-01-26T18:37:56.004Z,22.57
2023-01-26T18:40:24.978Z,18.43
2023-01-26T18:42:54.468Z,22.00
2023-01-26T18:45:21.896Z,22.93
2023-01-26T18:47:49.977Z,21.17
2023-01-26T18:50:17.746Z,18.17
2023-01-26T18:52:45.096Z,19.60
2023-01-26T18:55:12.908Z,20.70
2023-01-26T18:57:41.815Z,20.17
2023-01-26T19:00:09.849Z,17.67
2023-01-26T19:02:39.319Z,15.17
2023-01-26T19:05:07.132Z,9.83
2023-01-26T19:07:34.540Z,11.10
2023-01-26T19:10:02.007Z,16.73
2023-01-26T19:12:29.526Z,18.33
2023-01-26T19:14:57.566Z,18.57
2023-01-26T19:17:26.528Z,18.83
2023-01-26T19:19:53.899Z,21.43
2023-01-26T19:22:21.532Z,21.80
2023-01-26T19:24:49.046Z,18.83
2023-01-26T19:27:16.695Z,22.00
2023-01-26T19:29:44.054Z,17.37
2023-01-26T19:32:11.444Z,24.70
2023-01-26T19:34:40.259Z,19.13
2023-01-26T19:37:07.790Z,19.97
2023-01-26T19:39:36.350Z,25.17
2023-01-26T19:42:03.709Z,22.57
2023-01-26T19:44:31.056Z,20.90
2023-01-26T19:46:59.245Z,24.37
2023-01-26T19:49:27.868Z,25.00
2023-01-26T19:51:56.661Z,20.53
2023-01-26T19:54:25.499Z,27.07
2023-01-26T19:56:52.842Z,26.13
2023-01-26T19:59:22.345Z,25.13
2023-01-26T20:01:49.737Z,26.50
2023-01-26T20:04:17.302Z,24.83
2023-01-26T20:06:44.973Z,25.27
2023-01-26T20:09:14.120Z,22.47
2023-01-26T20:11:41.937Z,22.63
2023-01-26T20:14:11.799Z,24.80
2023-01-26T20:16:39.702Z,22.30
2023-01-26T20:19:07.377Z,21.23
2023-01-26T20:21:35.438Z,20.17
2023-01-26T20:24:06.702Z,21.00
2023-01-26T20:26:36.056Z,21.70
2023-01-26T20:29:04.203Z,22.30
2023-01-26T20:31:32.743Z,23.83
2023-01-26T20:34:01.557Z,22.10
2023-01-26T20:36:29.243Z,20.30
2023-01-26T20:38:57.213Z,20.53
2023-01-26T20:41:27.236Z,22.83
2023-01-26T20:44:00.290Z,23.27
2023-01-26T20:46:29.546Z,23.00
2023-01-26T20:48:57.083Z,25.20
2023-01-26T20:51:25.222Z,31.27
2023-01-26T20:53:52.714Z,23.40
2023-01-26T20:56:22.300Z,24.63
2023-01-26T20:58:52.261Z,23.27
2023-01-26T21:01:21.868Z,20.83
2023-01-26T21:03:49.630Z,23.97
2023-01-26T21:06:18.458Z,23.67
2023-01-26T21:08:46.417Z,28.07
2023-01-26T21:11:14.828Z,27.37
2023-01-26T21:13:42.819Z,24.70
2023-01-26T21:16:10.606Z,23.33
2023-01-26T21:18:39.380Z,27.97
2023-01-26T21:21:07.551Z,25.03
2023-01-26T21:23:35.257Z,23.27
2023-01-26T21:26:03.329Z,23.30
2023-01-26T21:28:31.235Z,25.07
2023-01-26T21:31:02.443Z,21.13
2023-01-26T21:33:29.827Z,20.90
2023-01-26T21:35:58.972Z,22.07
2023-01-26T21:38:27.917Z,21.40
2023-01-26T21:41:01.326Z,21.87
2023-01-26T21:43:28.757Z,17.37
2023-01-26T21:45:56.517Z,20.50
2023-01-26T21:48:31.834Z,20.60
2023-01-26T21:51:18.082Z,19.10
2023-01-26T21:53:45.519Z,20.47
2023-01-26T21:56:14.673Z,23.53
2023-01-26T21:58:57.581Z,17.37
2023-01-26T22:01:25.657Z,16.40
2023-01-26T22:03:55.440Z,24.93
2023-01-26T22:06:24.667Z,22.37
2023-01-26T22:08:52.203Z,16.00
2023-01-26T22:11:19.947Z,18.50
2023-01-26T22:13:48.037Z,16.37
2023-01-26T22:16:16.122Z,28.77
2023-01-26T22:18:43.822Z,25.37
2023-01-26T22:21:11.183Z,21.23
2023-01-26T22:23:40.242Z,22.67
2023-01-26T22:26:08.540Z,17.40
2023-01-26T22:28:35.989Z,20.20
2023-01-26T22:31:04.932Z,22.67
2023-01-26T22:33:32.979Z,16.20
2023-01-26T22:36:01.418Z,22.43
2023-01-26T22:38:28.898Z,18.17
2023-01-26T22:40:57.914Z,20.77
2023-01-26T22:43:25.343Z,16.77
2023-01-26T22:45:52.764Z,23.87
2023-01-26T22:48:21.050Z,19.43
2023-01-26T22:50:48.491Z,17.93
2023-01-26T22:53:15.848Z,18.03
2023-01-26T22:55:43.808Z,20.80
2023-01-26T22:58:12.470Z,21.53
2023-01-26T23:00:40.012Z,20.10
2023-01-26T23:03:07.499Z,20.33
2023-01-26T23:05:35.263Z,24.20
2023-01-26T23:08:02.938Z,18.90
2023-01-26T23:10:30.762Z,19.80
2023-01-26T23:12:58.206Z,18.67
2023-01-26T23:15:27.447Z,22.57
2023-01-26T23:17:54.831Z,19.43
2023-01-26T23:20:22.765Z,20.53
2023-01-26T23:22:50.103Z,21.87
2023-01-26T23:25:35.505Z,16.50
2023-01-26T23:28:03.586Z,17.30
2023-01-26T23:30:32.386Z,19.03
2023-01-26T23:32:59.967Z,16.33
2023-01-26T23:35:28.269Z,11.47
2023-01-26T23:37:56.104Z,16.07
2023-01-26T23:40:23.646Z,10.83
2023-01-26T23:43:06.846Z,19.63
2023-01-26T23:45:39.389Z,26.17
2023-01-26T23:48:07.224Z,20.10
2023-01-26T23:50:34.618Z,17.53
2023-01-26T23:53:02.158Z,18.67
2023-01-26T23:55:29.648Z,22.53
2023-01-26T23:57:57.027Z,18.20
